createdAt,value
2022-10-28T00:02:23.828Z,21.25
2022-10-28T00:05:26.776Z,21.25
2022-10-28T00:08:29.552Z,21.24
2022-10-28T00:11:34.603Z,21.24
2022-10-28T00:14:36.951Z,21.24
2022-10-28T00:17:39.624Z,21.19
2022-10-28T00:20:41.980Z,21.18
2022-10-28T00:23:45.519Z,21.19
2022-10-28T00:26:47.570Z,21.17
2022-10-28T00:29:50.751Z,21.18
2022-10-28T00:32:53.353Z,21.17
2022-10-28T00:35:56.318Z,21.15
2022-10-28T00:38:59.606Z,21.14
2022-10-28T00:42:06.633Z,21.14
2022-10-28T00:45:09.862Z,21.12
2022-10-28T00:48:13.073Z,21.11
2022-10-28T00:51:16.336Z,21.08
2022-10-28T00:54:19.718Z,21.11
2022-10-28T00:57:28.180Z,21.08
2022-10-28T01:00:30.898Z,21.05
2022-10-28T01:03:33.373Z,21.05
2022-10-28T01:06:36.010Z,21.07
2022-10-28T01:09:40.293Z,21.04
2022-10-28T01:12:42.596Z,21.02
2022-10-28T01:15:48.901Z,20.99
2022-10-28T01:19:03.274Z,20.98
2022-10-28T01:22:23.731Z,20.95
2022-10-28T01:26:04.167Z,20.95
2022-10-28T01:29:15.285Z,20.95
2022-10-28T01:32:50.165Z,20.95
2022-10-28T01:35:59.417Z,20.94
2022-10-28T01:39:14.324Z,20.92
2022-10-28T01:42:28.744Z,20.92
2022-10-28T01:45:36.101Z,20.91
2022-10-28T01:48:46.888Z,20.90
2022-10-28T01:51:55.569Z,20.90
2022-10-28T01:55:09.011Z,20.87
2022-10-28T01:58:16.158Z,20.85
2022-10-28T02:01:19.608Z,20.84
2022-10-28T02:04:22.340Z,20.85
2022-10-28T02:07:24.682Z,20.85
2022-10-28T02:10:35.358Z,20.84
2022-10-28T02:14:09.842Z,20.84
2022-10-28T02:17:49.621Z,20.81
2022-10-28T02:21:02.833Z,20.81
2022-10-28T02:24:19.991Z,20.80
2022-10-28T02:27:33.306Z,20.78
2022-10-28T02:30:54.241Z,20.77
2022-10-28T02:34:01.588Z,20.77
2022-10-28T02:37:11.592Z,20.77
2022-10-28T02:40:20.112Z,20.77
2022-10-28T02:43:25.251Z,20.74
2022-10-28T02:46:31.571Z,20.73
2022-10-28T02:49:37.835Z,20.73
2022-10-28T02:52:42.829Z,20.70
2022-10-28T02:55:49.603Z,20.70
2022-10-28T02:58:52.024Z,20.70
2022-10-28T03:01:54.953Z,20.68
2022-10-28T03:04:57.301Z,20.70
2022-10-28T03:07:59.812Z,20.68
2022-10-28T03:11:03.567Z,20.71
2022-10-28T03:14:07.893Z,20.71
2022-10-28T03:17:11.655Z,20.71
2022-10-28T03:20:14.363Z,20.68
2022-10-28T03:23:16.343Z,20.68
2022-10-28T03:26:18.726Z,20.68
2022-10-28T03:29:21.299Z,20.67
2022-10-28T03:32:23.885Z,20.68
2022-10-28T03:35:26.048Z,20.67
2022-10-28T03:38:28.441Z,20.66
2022-10-28T03:41:30.668Z,20.66
2022-10-28T03:44:32.928Z,20.66
2022-10-28T03:47:36.039Z,20.66
2022-10-28T03:50:38.670Z,20.63
2022-10-28T03:53:40.672Z,20.64
2022-10-28T03:56:43.362Z,20.61
2022-10-28T03:59:45.529Z,20.63
2022-10-28T04:02:52.633Z,20.60
2022-10-28T04:05:55.265Z,20.57
2022-10-28T04:08:57.779Z,20.57
2022-10-28T04:11:59.895Z,20.56
2022-10-28T04:15:02.607Z,20.57
2022-10-28T04:18:05.304Z,20.57
2022-10-28T04:21:07.808Z,20.57
2022-10-28T04:24:09.904Z,20.54
2022-10-28T04:27:12.905Z,20.54
2022-10-28T04:30:15.762Z,20.54
2022-10-28T04:33:18.926Z,20.54
2022-10-28T04:36:21.487Z,20.53
2022-10-28T04:39:24.368Z,20.53
2022-10-28T04:42:27.257Z,20.53
2022-10-28T04:45:29.922Z,20.51
2022-10-28T04:48:35.846Z,20.53
2022-10-28T04:51:38.724Z,20.50
2022-10-28T04:54:40.986Z,20.51
2022-10-28T04:57:43.433Z,20.51
2022-10-28T05:00:45.705Z,20.48
2022-10-28T05:03:48.370Z,20.50
2022-10-28T05:06:50.645Z,20.50
2022-10-28T05:09:53.236Z,20.51
2022-10-28T05:12:55.487Z,20.47
2022-10-28T05:15:57.980Z,20.48
2022-10-28T05:19:00.289Z,20.47
2022-10-28T05:22:02.890Z,20.43
2022-10-28T05:25:05.692Z,20.43
2022-10-28T05:28:08.484Z,20.44
2022-10-28T05:31:10.990Z,20.43
2022-10-28T05:34:13.358Z,20.46
2022-10-28T05:37:16.210Z,20.44
2022-10-28T05:40:18.684Z,20.43
2022-10-28T05:43:21.038Z,20.40
2022-10-28T05:46:23.644Z,20.39
2022-10-28T05:49:25.859Z,20.39
2022-10-28T05:52:28.109Z,20.37
2022-10-28T05:55:30.259Z,20.39
2022-10-28T05:58:32.618Z,20.36
2022-10-28T06:01:34.786Z,20.37
2022-10-28T06:04:37.401Z,20.36
2022-10-28T06:07:41.275Z,20.33
2022-10-28T06:10:50.286Z,20.33
2022-10-28T06:13:52.859Z,20.34
2022-10-28T06:16:55.865Z,20.34
2022-10-28T06:19:58.062Z,20.37
2022-10-28T06:23:00.994Z,20.39
2022-10-28T06:26:04.574Z,20.36
2022-10-28T06:29:09.759Z,20.36
2022-10-28T06:32:11.956Z,20.34
2022-10-28T06:35:14.534Z,20.37
2022-10-28T06:38:16.687Z,20.34
2022-10-28T06:41:20.171Z,20.36
2022-10-28T06:44:22.494Z,20.36
2022-10-28T06:47:26.842Z,20.37
2022-10-28T06:50:29.921Z,20.46
2022-10-28T06:53:32.502Z,20.51
2022-10-28T06:56:34.963Z,20.57
2022-10-28T06:59:37.803Z,20.61
2022-10-28T07:02:45.191Z,20.70
2022-10-28T07:05:50.231Z,20.67
2022-10-28T07:08:52.942Z,20.71
2022-10-28T07:11:56.507Z,20.74
2022-10-28T07:15:01.575Z,20.80
2022-10-28T07:18:04.156Z,20.84
2022-10-28T07:21:06.379Z,20.88
2022-10-28T07:24:09.232Z,20.88
2022-10-28T07:27:11.338Z,20.84
2022-10-28T07:30:13.913Z,20.80
2022-10-28T07:33:16.403Z,20.83
2022-10-28T07:36:18.812Z,20.81
2022-10-28T07:39:21.166Z,20.84
2022-10-28T07:42:24.271Z,20.83
2022-10-28T07:45:26.660Z,20.84
2022-10-28T07:48:29.167Z,20.83
2022-10-28T07:51:31.455Z,20.84
2022-10-28T07:54:34.359Z,20.91
2022-10-28T07:57:37.259Z,20.94
2022-10-28T08:00:39.990Z,20.97
2022-10-28T08:03:42.316Z,21.02
2022-10-28T08:06:44.662Z,21.08
2022-10-28T08:09:46.933Z,21.09
2022-10-28T08:12:49.579Z,21.14
2022-10-28T08:15:53.559Z,21.15
2022-10-28T08:18:57.212Z,21.18
2022-10-28T08:21:59.690Z,21.21
2022-10-28T08:25:01.979Z,21.27
2022-10-28T08:28:04.650Z,21.28
2022-10-28T08:31:10.506Z,21.32
2022-10-28T08:34:12.662Z,21.34
2022-10-28T08:37:16.412Z,21.39
2022-10-28T08:40:24.676Z,21.45
2022-10-28T08:43:57.268Z,21.41
2022-10-28T08:47:21.950Z,21.39
2022-10-28T08:50:27.929Z,21.45
2022-10-28T08:53:41.488Z,21.43
2022-10-28T08:56:47.586Z,21.50
2022-10-28T08:59:53.072Z,21.56
2022-10-28T09:03:06.738Z,21.59
2022-10-28T09:06:10.587Z,21.63
2022-10-28T09:09:19.756Z,21.66
2022-10-28T09:12:43.957Z,21.66
2022-10-28T09:16:21.886Z,21.63
2022-10-28T09:19:32.863Z,21.58
2022-10-28T09:22:56.092Z,21.58
2022-10-28T09:26:11.435Z,21.53
2022-10-28T09:29:43.317Z,21.53
2022-10-28T09:32:52.954Z,21.52
2022-10-28T09:35:57.251Z,21.53
2022-10-28T09:39:01.524Z,21.50
2022-10-28T09:42:10.112Z,21.52
2022-10-28T09:45:28.585Z,21.52
2022-10-28T09:48:42.145Z,21.52
2022-10-28T09:51:52.845Z,21.50
2022-10-28T09:54:57.044Z,21.52
2022-10-28T09:57:59.987Z,21.48
2022-10-28T10:01:05.164Z,21.50
2022-10-28T10:04:22.682Z,21.48
2022-10-28T10:07:57.042Z,21.49
2022-10-28T10:11:07.193Z,21.48
2022-10-28T10:14:15.768Z,21.49
2022-10-28T10:17:43.475Z,21.48
2022-10-28T10:21:01.556Z,21.48
2022-10-28T10:24:29.186Z,21.52
2022-10-28T10:27:32.469Z,21.50
2022-10-28T10:30:36.847Z,21.52
2022-10-28T10:33:41.143Z,21.52
2022-10-28T10:36:51.199Z,21.52
2022-10-28T10:40:11.175Z,21.52
2022-10-28T10:43:22.958Z,21.49
2022-10-28T10:46:25.180Z,21.53
2022-10-28T10:49:28.754Z,21.52
2022-10-28T10:52:31.556Z,21.53
2022-10-28T10:55:33.864Z,21.53
2022-10-28T10:58:40.555Z,21.53
2022-10-28T11:01:43.172Z,21.55
2022-10-28T11:04:52.128Z,21.56
2022-10-28T11:07:54.621Z,21.56
2022-10-28T11:11:07.615Z,21.59
2022-10-28T11:14:10.535Z,21.55
2022-10-28T11:17:25.509Z,21.58
2022-10-28T11:20:32.469Z,21.59
2022-10-28T11:24:07.209Z,21.59
2022-10-28T11:27:28.854Z,21.60
2022-10-28T11:30:45.244Z,21.59
2022-10-28T11:34:13.373Z,21.62
2022-10-28T11:37:38.919Z,21.65
2022-10-28T11:40:50.421Z,21.67
2022-10-28T11:43:57.681Z,21.69
2022-10-28T11:47:21.794Z,21.67
2022-10-28T11:50:43.223Z,21.69
2022-10-28T11:53:57.281Z,21.70
2022-10-28T11:57:12.823Z,21.66
2022-10-28T12:00:36.088Z,21.69
2022-10-28T12:04:32.963Z,21.78
2022-10-28T12:07:42.429Z,21.82
2022-10-28T12:11:10.496Z,21.89
2022-10-28T12:14:15.755Z,21.90
2022-10-28T12:17:52.716Z,21.93
2022-10-28T12:21:19.077Z,22.00
2022-10-28T12:24:25.001Z,22.04
2022-10-28T12:27:36.597Z,22.12
2022-10-28T12:30:43.462Z,22.14
2022-10-28T12:33:57.617Z,22.18
2022-10-28T12:37:14.467Z,22.23
2022-10-28T12:40:22.005Z,22.25
2022-10-28T12:43:40.716Z,22.30
2022-10-28T12:50:09.729Z,22.34
2022-10-28T12:53:36.221Z,22.39
2022-10-28T12:56:57.554Z,22.45
2022-10-28T13:00:20.626Z,22.47
2022-10-28T13:03:28.523Z,22.48
2022-10-28T13:06:49.682Z,22.51
2022-10-28T13:10:11.133Z,22.54
2022-10-28T13:13:45.874Z,22.54
2022-10-28T13:17:05.477Z,22.53
2022-10-28T13:20:18.274Z,22.58
2022-10-28T13:23:25.509Z,22.60
2022-10-28T13:26:37.078Z,22.63
2022-10-28T13:29:44.752Z,22.60
2022-10-28T13:33:01.169Z,22.60
2022-10-28T13:36:27.000Z,22.58
2022-10-28T13:39:31.886Z,22.63
2022-10-28T13:42:47.714Z,22.64
2022-10-28T13:45:55.679Z,22.65
2022-10-28T13:49:26.733Z,22.65
2022-10-28T13:52:29.117Z,22.65
2022-10-28T13:55:39.096Z,22.67
2022-10-28T13:59:06.661Z,22.68
2022-10-28T14:02:37.999Z,22.68
2022-10-28T14:05:40.370Z,22.68
2022-10-28T14:08:44.943Z,22.69
2022-10-28T14:11:47.108Z,22.71
2022-10-28T14:15:06.495Z,22.72
2022-10-28T14:18:43.108Z,22.72
2022-10-28T14:22:03.328Z,22.74
2022-10-28T14:25:41.739Z,22.71
2022-10-28T14:28:54.400Z,22.74
2022-10-28T14:31:56.720Z,22.76
2022-10-28T14:35:03.568Z,22.83
2022-10-28T14:38:14.043Z,22.84
2022-10-28T14:41:16.702Z,22.83
2022-10-28T14:44:37.671Z,22.87
2022-10-28T14:48:03.381Z,22.81
2022-10-28T14:51:14.953Z,22.94
2022-10-28T14:54:29.993Z,22.98
2022-10-28T14:57:34.915Z,22.98
2022-10-28T15:00:42.425Z,23.02
2022-10-28T15:03:47.551Z,23.04
2022-10-28T15:06:52.073Z,23.04
2022-10-28T15:09:56.168Z,23.06
2022-10-28T15:13:00.233Z,23.08
2022-10-28T15:16:05.211Z,23.06
2022-10-28T15:19:34.081Z,23.06
2022-10-28T15:22:36.359Z,23.05
2022-10-28T15:25:38.875Z,23.08
2022-10-28T15:28:52.739Z,23.11
2022-10-28T15:32:07.336Z,23.09
2022-10-28T15:35:38.271Z,23.12
2022-10-28T15:38:43.801Z,23.08
2022-10-28T15:41:49.738Z,23.05
2022-10-28T15:45:03.276Z,22.98
2022-10-28T15:48:19.237Z,22.88
2022-10-28T15:51:21.811Z,22.81
2022-10-28T15:54:24.054Z,22.75
2022-10-28T15:57:31.955Z,22.71
2022-10-28T16:00:34.506Z,22.64
2022-10-28T16:03:40.227Z,22.60
2022-10-28T16:06:42.303Z,22.53
2022-10-28T16:09:48.416Z,22.53
2022-10-28T16:12:51.192Z,22.44
2022-10-28T16:15:58.342Z,22.44
2022-10-28T16:19:16.330Z,22.40
2022-10-28T16:22:36.027Z,22.39
2022-10-28T16:25:39.310Z,22.39
2022-10-28T16:28:45.786Z,22.36
2022-10-28T16:31:52.546Z,22.32
2022-10-28T16:34:58.127Z,22.27
2022-10-28T16:38:00.377Z,22.25
2022-10-28T16:41:04.698Z,22.23
2022-10-28T16:44:17.034Z,22.20
2022-10-28T16:47:21.105Z,22.16
2022-10-28T16:50:23.656Z,22.16
2022-10-28T16:53:26.576Z,22.16
2022-10-28T16:56:28.725Z,22.10
2022-10-28T16:59:31.506Z,22.13
2022-10-28T17:02:36.143Z,22.06
2022-10-28T17:05:38.999Z,22.07
2022-10-28T17:12:06.052Z,22.03
2022-10-28T17:15:08.863Z,21.99
2022-10-28T17:18:12.941Z,21.97
2022-10-28T17:21:14.970Z,21.96
2022-10-28T17:24:17.490Z,21.92
2022-10-28T17:27:25.345Z,21.90
2022-10-28T17:30:28.699Z,21.89
2022-10-28T17:33:31.041Z,21.85
2022-10-28T17:36:34.208Z,21.85
2022-10-28T17:39:36.570Z,21.85
2022-10-28T17:42:38.999Z,21.83
2022-10-28T17:45:41.337Z,21.78
2022-10-28T17:48:44.465Z,21.78
2022-10-28T17:51:46.530Z,21.78
2022-10-28T17:54:48.895Z,21.76
2022-10-28T17:57:51.174Z,21.73
2022-10-28T18:01:06.329Z,21.70
2022-10-28T18:04:09.008Z,21.72
2022-10-28T18:07:11.508Z,21.69
2022-10-28T18:10:14.266Z,21.69
2022-10-28T18:18:01.737Z,21.65
2022-10-28T18:21:04.574Z,21.62
2022-10-28T18:24:09.810Z,21.62
2022-10-28T18:31:41.180Z,21.56
2022-10-28T18:35:08.662Z,21.56
2022-10-28T18:38:10.765Z,21.55
2022-10-28T18:45:25.591Z,21.50
2022-10-28T18:48:29.156Z,21.52
2022-10-28T18:51:41.911Z,21.50
2022-10-28T18:55:09.639Z,21.50
2022-10-28T18:59:01.100Z,21.48
2022-10-28T19:02:35.425Z,21.48
2022-10-28T19:05:54.438Z,21.46
2022-10-28T19:08:58.298Z,21.46
2022-10-28T19:12:00.238Z,21.45
2022-10-28T19:15:03.855Z,21.50
2022-10-28T19:18:05.849Z,21.56
2022-10-28T19:21:12.860Z,21.58
2022-10-28T19:24:15.171Z,21.63
2022-10-28T19:27:17.829Z,21.66
2022-10-28T19:30:22.056Z,21.70
2022-10-28T19:33:24.995Z,21.75
2022-10-28T19:36:29.506Z,21.76
2022-10-28T19:39:31.972Z,21.79
2022-10-28T19:42:34.335Z,21.83
2022-10-28T19:45:38.257Z,21.85
2022-10-28T19:48:43.605Z,21.88
2022-10-28T19:51:46.228Z,21.93
2022-10-28T19:54:48.209Z,21.94
2022-10-28T19:57:52.897Z,21.97
2022-10-28T20:01:00.120Z,21.99
2022-10-28T20:04:04.279Z,21.99
2022-10-28T20:07:06.290Z,22.00
2022-10-28T20:10:09.476Z,22.02
2022-10-28T20:13:11.834Z,22.07
2022-10-28T20:16:14.798Z,22.06
2022-10-28T20:19:17.088Z,22.09
2022-10-28T20:22:19.735Z,22.10
2022-10-28T20:25:22.308Z,22.13
2022-10-28T20:28:30.050Z,22.14
2022-10-28T20:31:33.749Z,22.10
2022-10-28T20:34:36.653Z,22.10
2022-10-28T20:37:40.400Z,22.09
2022-10-28T20:40:46.561Z,22.07
2022-10-28T20:43:52.647Z,22.07
2022-10-28T20:46:55.833Z,22.06
2022-10-28T20:49:59.521Z,22.06
2022-10-28T20:53:03.079Z,22.07
2022-10-28T20:56:05.757Z,22.07
2022-10-28T20:59:08.463Z,22.07
2022-10-28T21:02:11.291Z,22.06
2022-10-28T21:05:13.959Z,22.06
2022-10-28T21:08:17.597Z,22.07
2022-10-28T21:11:20.787Z,22.13
2022-10-28T21:14:22.922Z,22.14
2022-10-28T21:17:25.629Z,22.14
2022-10-28T21:20:28.422Z,22.17
2022-10-28T21:23:56.691Z,22.17
2022-10-28T21:27:00.697Z,22.17
2022-10-28T21:30:04.086Z,22.16
2022-10-28T21:33:06.560Z,22.20
2022-10-28T21:36:16.961Z,22.23
2022-10-28T21:39:19.464Z,22.23
2022-10-28T21:42:21.771Z,22.23
2022-10-28T21:45:24.821Z,22.27
2022-10-28T21:48:30.291Z,22.27
2022-10-28T21:51:32.484Z,22.24
2022-10-28T21:54:35.432Z,22.29
2022-10-28T21:57:37.738Z,22.29
2022-10-28T22:00:40.490Z,22.32
2022-10-28T22:03:42.701Z,22.39
2022-10-28T22:06:53.590Z,22.39
2022-10-28T22:09:55.658Z,22.39
2022-10-28T22:12:58.088Z,22.37
2022-10-28T22:16:06.895Z,22.37
2022-10-28T22:19:12.966Z,22.43
2022-10-28T22:22:16.314Z,22.45
2022-10-28T22:25:18.808Z,22.44
2022-10-28T22:28:20.898Z,22.44
2022-10-28T22:31:25.837Z,22.43
2022-10-28T22:34:27.944Z,22.45
2022-10-28T22:37:30.289Z,22.41
2022-10-28T22:40:32.445Z,22.44
2022-10-28T22:43:35.318Z,22.50
2022-10-28T22:46:37.558Z,22.50
2022-10-28T22:49:41.034Z,22.53
2022-10-28T22:52:43.076Z,22.54
2022-10-28T22:55:46.628Z,22.57
2022-10-28T22:58:53.035Z,22.55
2022-10-28T23:01:55.531Z,22.50
2022-10-28T23:04:57.560Z,22.54
2022-10-28T23:08:00.417Z,22.57
2022-10-28T23:11:03.029Z,22.57
2022-10-28T23:14:05.347Z,22.57
2022-10-28T23:17:08.462Z,22.54
2022-10-28T23:20:11.248Z,22.55
2022-10-28T23:23:13.756Z,22.54
2022-10-28T23:26:16.260Z,22.51
2022-10-28T23:29:18.370Z,22.39
2022-10-28T23:32:21.348Z,22.25
2022-10-28T23:35:23.587Z,22.20
2022-10-28T23:38:27.308Z,22.12
2022-10-28T23:41:29.449Z,22.06
2022-10-28T23:44:32.073Z,22.04
2022-10-28T23:47:34.678Z,21.96
2022-10-28T23:50:37.503Z,21.94
2022-10-28T23:53:39.619Z,21.90
2022-10-28T23:56:42.532Z,21.86
2022-10-28T23:59:44.483Z,21.83
